Pagrindinis puslapis
METAR-TAF:

METAR-TAF

Oro uostai :

Naval Air Station Whiting Field North

Milton, Florida, Jungtinės Amerikos Valstijos

platuma: 30-44-00N, ilguma: 087-01-00W, Aukštis: 60 m

Dabartinis oras

Ataskaita buvo paskelbta 1 valandą ir 7 minutes, ne 17:56 UTC
Vėjas 5 kt iš Šiaurės Vakarų
Temperatūra 21°C
Drėgmė 43%
Slėgis 1016 hPa
Matomumas: 16.1 km
Su prošvaistėmis ne aukštis 25000 ft

METAR: KNSE 171756Z 31005KT 10SM BKN250 21/08 A2999 RMK AO2 SLP142 T02060083 10206 20100 58020 $

Laikas: 14:03 (19:03 UTC)

Prognozė

Prognozė galioja nuo 17 metu 15 UTC su 18 metu 15 UTC
Vėjas 6 kt nuo kintamojo kryptimis
Matomumas 10 km arba daugiau
Su prošvaistėmis ne aukštis 25000 ft
Nuo 18 metu 0600 UTC
Vėjas 6 kt nuo kintamojo kryptimis
Matomumas: 1514 m
Išsisklaidę debesys ne aukštis 12000 ft
Su prošvaistėmis ne aukštis 25000 ft

TAF: KNSE 1715/1815 VRB06KT 9999 BKN250 QNH2994INS FM180600 VRB06KT 9999 SCT120 BKN250 QNH2991INS T23/1719Z T11/1812Z COR 1514 FN20071

Orai ataskaitas ir orų prognozės (METAR, TAF).

turimą stotys yra geltonos ir raudonos taškus žemėlapyje.

Perkelti pele per norėdami pamatyti stoties vardą.

Tada spustelėkite, norėdami matyti oro stebėjimo ir prognozės.

Norėdami pakeisti žemėlapį: spustelėkite ant žalios mygtukų su juodo kryžiaus žemyn,; žalią mygtuką su brūkšneliu, jei norite nutolinti; arba žalių rodyklių gretimoms žemėlapius.


METAR-TAF: